createdAt,value
2023-02-06T00:01:52.014Z,98876.97
2023-02-06T00:04:20.552Z,98872.69
2023-02-06T00:06:50.306Z,98875.47
2023-02-06T00:09:22.187Z,98874.91
2023-02-06T00:11:50.597Z,98869.84
2023-02-06T00:14:19.200Z,98863.00
2023-02-06T00:16:47.532Z,98869.75
2023-02-06T00:19:16.079Z,98884.34
2023-02-06T00:21:44.864Z,98881.59
2023-02-06T00:24:14.611Z,98881.69
2023-02-06T00:26:42.973Z,98891.63
2023-02-06T00:29:11.319Z,98893.56
2023-02-06T00:31:39.913Z,98893.75
2023-02-06T00:34:08.394Z,98885.28
2023-02-06T00:36:36.740Z,98884.69
2023-02-06T00:39:05.512Z,98889.31
2023-02-06T00:41:35.223Z,98882.19
2023-02-06T00:44:03.584Z,98890.38
2023-02-06T00:46:32.827Z,98893.03
2023-02-06T00:49:01.556Z,98901.84
2023-02-06T00:51:30.610Z,98901.75
2023-02-06T00:53:59.149Z,98905.06
2023-02-06T00:56:27.556Z,98897.75
2023-02-06T00:58:57.245Z,98911.38
2023-02-06T01:01:26.860Z,98917.56
2023-02-06T01:03:56.562Z,98912.50
2023-02-06T01:06:25.279Z,98923.06
2023-02-06T01:08:53.848Z,98929.31
2023-02-06T01:11:25.464Z,98919.34
2023-02-06T01:13:56.334Z,98915.63
2023-02-06T01:16:26.443Z,98916.59
2023-02-06T01:18:55.282Z,98910.09
2023-02-06T01:21:26.189Z,98903.31
2023-02-06T01:23:56.842Z,98909.72
2023-02-06T01:26:28.462Z,98899.19
2023-02-06T01:28:59.520Z,98896.53
2023-02-06T01:31:30.930Z,98910.72
2023-02-06T01:34:01.687Z,98898.78
2023-02-06T01:36:30.404Z,98892.03
2023-02-06T01:38:58.761Z,98892.84
2023-02-06T01:41:27.444Z,98887.50
2023-02-06T01:44:15.562Z,98884.44
2023-02-06T01:46:46.705Z,98874.28
2023-02-06T01:49:21.928Z,98871.50
2023-02-06T01:51:56.836Z,98877.97
2023-02-06T01:54:25.968Z,98872.25
2023-02-06T01:57:00.100Z,98873.13
2023-02-06T01:59:30.828Z,98865.97
2023-02-06T02:02:00.002Z,98868.19
2023-02-06T02:04:32.334Z,98867.75
2023-02-06T02:07:11.828Z,98863.72
2023-02-06T02:09:40.473Z,98871.41
2023-02-06T02:12:09.419Z,98867.94
2023-02-06T02:14:44.098Z,98869.34
2023-02-06T02:17:32.716Z,98880.47
2023-02-06T02:20:55.920Z,98876.59
2023-02-06T02:23:41.079Z,98887.63
2023-02-06T02:26:59.485Z,98885.13
2023-02-06T02:30:32.157Z,98887.59
2023-02-06T02:33:38.393Z,98895.72
2023-02-06T02:36:16.081Z,98887.34
2023-02-06T02:39:00.668Z,98885.84
2023-02-06T02:41:36.518Z,98900.69
2023-02-06T02:44:10.971Z,98892.19
2023-02-06T02:46:43.887Z,98888.75
2023-02-06T02:49:16.641Z,98898.25
2023-02-06T02:51:48.508Z,98902.72
2023-02-06T02:54:18.468Z,98895.94
2023-02-06T02:56:47.194Z,98893.25
2023-02-06T02:59:24.170Z,98900.88
2023-02-06T03:01:58.821Z,98901.41
2023-02-06T03:04:36.167Z,98900.03
2023-02-06T03:07:24.668Z,98899.31
2023-02-06T03:10:06.850Z,98902.63
2023-02-06T03:12:45.808Z,98902.34
2023-02-06T03:15:28.031Z,98904.38
2023-02-06T03:18:05.261Z,98907.97
2023-02-06T03:20:36.828Z,98903.00
2023-02-06T03:23:09.880Z,98906.59
2023-02-06T03:25:43.895Z,98900.66
2023-02-06T03:28:20.053Z,98904.09
2023-02-06T03:30:54.096Z,98900.66
2023-02-06T03:33:33.441Z,98896.03
2023-02-06T03:36:03.769Z,98894.63
2023-02-06T03:38:33.945Z,98892.31
2023-02-06T03:41:04.589Z,98892.13
2023-02-06T03:43:34.155Z,98899.19
2023-02-06T03:46:07.363Z,98898.25
2023-02-06T03:48:42.951Z,98901.88
2023-02-06T03:51:19.908Z,98897.28
2023-02-06T03:53:54.165Z,98891.13
2023-02-06T03:56:33.112Z,98894.16
2023-02-06T03:59:01.964Z,98891.66
2023-02-06T04:01:31.333Z,98894.91
2023-02-06T04:04:00.690Z,98895.84
2023-02-06T04:06:29.318Z,98889.66
2023-02-06T04:08:59.710Z,98888.88
2023-02-06T04:11:28.097Z,98884.59
2023-02-06T04:13:56.502Z,98874.84
2023-02-06T04:16:25.266Z,98863.16
2023-02-06T04:18:53.876Z,98854.16
2023-02-06T04:21:25.595Z,98860.78
2023-02-06T04:23:54.051Z,98856.66
2023-02-06T04:26:23.795Z,98857.94
2023-02-06T04:28:52.226Z,98859.50
2023-02-06T04:31:20.972Z,98856.34
2023-02-06T04:33:49.975Z,98853.56
2023-02-06T04:36:18.289Z,98848.44
2023-02-06T04:38:47.328Z,98854.66
2023-02-06T04:41:15.687Z,98862.69
2023-02-06T04:43:45.387Z,98873.25
2023-02-06T04:46:14.030Z,98861.97
2023-02-06T04:48:42.705Z,98865.00
2023-02-06T04:51:11.257Z,98867.69
2023-02-06T04:53:39.943Z,98862.56
2023-02-06T04:56:12.568Z,98863.75
2023-02-06T04:58:41.790Z,98866.72
2023-02-06T05:01:11.724Z,98872.19
2023-02-06T05:03:40.677Z,98861.38
2023-02-06T05:06:09.364Z,98865.22
2023-02-06T05:08:37.770Z,98853.59
2023-02-06T05:11:06.608Z,98846.78
2023-02-06T05:13:36.104Z,98844.47
2023-02-06T05:16:13.724Z,98858.59
2023-02-06T05:18:44.470Z,98858.59
2023-02-06T05:21:14.030Z,98868.25
2023-02-06T05:23:42.434Z,98870.84
2023-02-06T05:26:11.196Z,98860.47
2023-02-06T05:28:40.963Z,98855.25
2023-02-06T05:31:11.059Z,98859.25
2023-02-06T05:33:39.489Z,98869.31
2023-02-06T05:36:09.851Z,98860.34
2023-02-06T05:38:38.148Z,98852.81
2023-02-06T05:41:06.922Z,98857.78
2023-02-06T05:43:35.287Z,98855.81
2023-02-06T05:46:04.035Z,98858.44
2023-02-06T05:48:34.944Z,98859.91
2023-02-06T05:51:04.216Z,98861.06
2023-02-06T05:53:32.509Z,98867.94
2023-02-06T05:56:01.153Z,98881.91
2023-02-06T05:58:29.792Z,98873.56
2023-02-06T06:00:58.263Z,98874.69
2023-02-06T06:03:26.867Z,98872.53
2023-02-06T06:05:57.220Z,98853.53
2023-02-06T06:08:25.772Z,98871.38
2023-02-06T06:10:54.554Z,98879.88
2023-02-06T06:13:23.014Z,98885.56
2023-02-06T06:15:53.244Z,98890.88
2023-02-06T06:18:22.600Z,98905.38
2023-02-06T06:20:51.204Z,98896.50
2023-02-06T06:23:21.002Z,98896.59
2023-02-06T06:25:49.922Z,98894.31
2023-02-06T06:28:19.032Z,98893.53
2023-02-06T06:30:47.789Z,98885.38
2023-02-06T06:33:16.747Z,98894.97
2023-02-06T06:35:45.506Z,98893.25
2023-02-06T06:38:13.819Z,98884.72
2023-02-06T06:40:44.167Z,98882.22
2023-02-06T06:43:12.838Z,98877.88
2023-02-06T06:45:41.441Z,98874.03
2023-02-06T06:48:10.092Z,98873.31
2023-02-06T06:50:38.445Z,98884.09
2023-02-06T06:53:07.171Z,98882.81
2023-02-06T06:55:36.151Z,98872.06
2023-02-06T06:58:05.977Z,98869.97
2023-02-06T07:00:34.568Z,98881.13
2023-02-06T07:03:03.391Z,98879.72
2023-02-06T07:05:31.841Z,98882.88
2023-02-06T07:08:00.349Z,98887.09
2023-02-06T07:10:28.644Z,98893.28
2023-02-06T07:12:57.269Z,98895.03
2023-02-06T07:15:27.268Z,98902.31
2023-02-06T07:17:55.644Z,98906.75
2023-02-06T07:20:24.111Z,98908.03
2023-02-06T07:22:53.640Z,98908.41
2023-02-06T07:25:23.214Z,98909.03
2023-02-06T07:27:51.952Z,98901.44
2023-02-06T07:30:20.756Z,98884.06
2023-02-06T07:32:51.732Z,98887.59
2023-02-06T07:35:20.490Z,98877.28
2023-02-06T07:37:48.839Z,98885.88
2023-02-06T07:40:18.116Z,98885.63
2023-02-06T07:42:46.478Z,98892.53
2023-02-06T07:45:24.900Z,98902.31
2023-02-06T07:47:55.050Z,98894.22
2023-02-06T07:50:23.366Z,98888.69
2023-02-06T07:52:51.772Z,98894.75
2023-02-06T07:55:20.400Z,98892.91
2023-02-06T07:57:49.230Z,98890.84
2023-02-06T08:00:18.589Z,98891.72
2023-02-06T08:02:51.130Z,98881.78
2023-02-06T08:05:20.868Z,98880.84
2023-02-06T08:07:51.294Z,98871.94
2023-02-06T08:10:19.742Z,98877.19
2023-02-06T08:12:48.110Z,98874.31
2023-02-06T08:15:17.210Z,98876.56
2023-02-06T08:17:45.533Z,98875.25
2023-02-06T08:20:14.282Z,98872.81
2023-02-06T08:22:44.801Z,98859.16
2023-02-06T08:25:13.257Z,98853.72
2023-02-06T08:27:41.940Z,98854.84
2023-02-06T08:30:12.040Z,98849.28
2023-02-06T08:32:40.479Z,98848.63
2023-02-06T08:35:09.390Z,98844.50
2023-02-06T08:37:37.722Z,98843.69
2023-02-06T08:40:09.124Z,98843.84
2023-02-06T08:42:37.713Z,98846.72
2023-02-06T08:45:07.438Z,98856.59
2023-02-06T08:47:36.082Z,98855.81
2023-02-06T08:50:04.483Z,98863.44
2023-02-06T08:52:32.832Z,98857.53
2023-02-06T08:55:01.229Z,98859.47
2023-02-06T08:57:31.031Z,98857.13
2023-02-06T08:59:59.312Z,98858.19
2023-02-06T09:02:27.737Z,98865.47
2023-02-06T09:04:56.101Z,98852.81
2023-02-06T09:07:25.107Z,98853.91
2023-02-06T09:09:54.173Z,98850.41
2023-02-06T09:12:22.517Z,98857.91
2023-02-06T09:14:52.317Z,98865.78
2023-02-06T09:17:20.673Z,98863.28
2023-02-06T09:19:49.006Z,98856.91
2023-02-06T09:22:17.690Z,98851.50
2023-02-06T09:24:46.627Z,98839.66
2023-02-06T09:27:15.550Z,98843.13
2023-02-06T09:29:44.026Z,98843.56
2023-02-06T09:32:13.982Z,98854.34
2023-02-06T09:34:42.373Z,98862.63
2023-02-06T09:37:11.116Z,98848.94
2023-02-06T09:39:39.856Z,98840.56
2023-02-06T09:42:31.385Z,98840.56
2023-02-06T09:45:09.510Z,98838.72
2023-02-06T09:47:47.292Z,98842.72
2023-02-06T09:50:28.304Z,98846.63
2023-02-06T09:53:13.984Z,98847.09
2023-02-06T09:55:47.232Z,98848.53
2023-02-06T09:58:24.597Z,98846.44
2023-02-06T10:00:59.599Z,98834.44
2023-02-06T10:03:57.935Z,98832.41
2023-02-06T10:06:33.606Z,98838.56
2023-02-06T10:09:07.429Z,98832.97
2023-02-06T10:11:46.067Z,98833.78
2023-02-06T10:14:23.517Z,98834.63
2023-02-06T10:16:59.958Z,98828.00
2023-02-06T10:19:58.567Z,98823.81
2023-02-06T10:22:36.864Z,98818.03
2023-02-06T10:25:23.421Z,98805.50
2023-02-06T10:27:58.939Z,98799.91
2023-02-06T10:30:50.842Z,98798.81
2023-02-06T10:33:30.655Z,98790.16
2023-02-06T10:36:18.259Z,98780.19
2023-02-06T10:39:20.945Z,98773.16
2023-02-06T10:42:06.293Z,98765.91
2023-02-06T10:44:51.293Z,98771.03
2023-02-06T10:47:33.529Z,98766.97
2023-02-06T10:50:26.034Z,98765.47
2023-02-06T10:53:00.931Z,98757.41
2023-02-06T10:55:38.471Z,98754.66
2023-02-06T10:58:18.238Z,98757.66
2023-02-06T11:00:49.858Z,98752.19
2023-02-06T11:03:22.945Z,98753.28
2023-02-06T11:05:55.043Z,98750.88
2023-02-06T11:08:31.702Z,98745.66
2023-02-06T11:11:14.542Z,98736.69
2023-02-06T11:13:42.990Z,98741.16
2023-02-06T11:16:16.769Z,98739.03
2023-02-06T11:18:49.942Z,98731.88
2023-02-06T11:21:54.746Z,98729.47
2023-02-06T11:24:26.499Z,98724.91
2023-02-06T11:27:00.121Z,98725.19
2023-02-06T11:29:35.917Z,98725.81
2023-02-06T11:32:07.705Z,98727.69
2023-02-06T11:34:54.844Z,98725.28
2023-02-06T11:37:36.431Z,98718.25
2023-02-06T11:40:28.493Z,98725.63
2023-02-06T11:43:25.047Z,98723.38
2023-02-06T11:46:14.698Z,98713.50
2023-02-06T11:48:45.851Z,98708.94
2023-02-06T11:51:16.857Z,98704.16
2023-02-06T11:53:58.843Z,98704.47
2023-02-06T11:56:30.670Z,98693.31
2023-02-06T11:59:16.699Z,98698.38
2023-02-06T12:01:48.725Z,98697.44
2023-02-06T12:04:25.082Z,98707.91
2023-02-06T12:07:12.422Z,98693.97
2023-02-06T12:09:41.232Z,98697.50
2023-02-06T12:12:24.134Z,98691.91
2023-02-06T12:14:57.983Z,98684.50
2023-02-06T12:17:34.364Z,98687.03
2023-02-06T12:20:12.480Z,98677.44
2023-02-06T12:22:46.679Z,98673.31
2023-02-06T12:25:28.332Z,98668.66
2023-02-06T12:28:09.631Z,98656.63
2023-02-06T12:30:46.506Z,98658.94
2023-02-06T12:33:21.415Z,98649.84
2023-02-06T12:35:56.815Z,98638.94
2023-02-06T12:38:36.503Z,98634.84
2023-02-06T12:41:43.920Z,98636.81
2023-02-06T12:44:30.706Z,98623.03
2023-02-06T12:47:08.375Z,98615.16
2023-02-06T12:49:50.915Z,98623.28
2023-02-06T12:52:28.274Z,98626.19
2023-02-06T12:55:09.078Z,98622.31
2023-02-06T12:57:38.879Z,98621.41
2023-02-06T13:00:40.362Z,98617.50
2023-02-06T13:03:36.758Z,98631.38
2023-02-06T13:06:18.824Z,98624.78
2023-02-06T13:08:57.053Z,98623.16
2023-02-06T13:11:34.944Z,98624.84
2023-02-06T13:14:08.579Z,98627.47
2023-02-06T13:16:50.351Z,98630.88
2023-02-06T13:19:32.573Z,98623.03
2023-02-06T13:22:49.453Z,98631.25
2023-02-06T13:25:53.915Z,98630.72
2023-02-06T13:29:03.931Z,98633.31
2023-02-06T13:31:35.498Z,98635.81
2023-02-06T13:34:17.428Z,98640.13
2023-02-06T13:36:53.773Z,98638.31
2023-02-06T13:39:32.479Z,98649.69
2023-02-06T13:42:40.031Z,98642.72
2023-02-06T13:45:19.190Z,98646.31
2023-02-06T13:48:31.127Z,98641.38
2023-02-06T13:51:33.114Z,98636.03
2023-02-06T13:54:58.543Z,98638.19
2023-02-06T13:57:50.707Z,98641.09
2023-02-06T14:00:23.897Z,98638.00
2023-02-06T14:02:55.825Z,98636.91
2023-02-06T14:05:47.377Z,98627.00
2023-02-06T14:08:28.276Z,98632.41
2023-02-06T14:11:17.258Z,98632.41
2023-02-06T14:14:18.934Z,98622.13
2023-02-06T14:16:59.751Z,98624.03
2023-02-06T14:19:43.344Z,98635.19
2023-02-06T14:22:27.638Z,98628.38
2023-02-06T14:25:22.923Z,98623.81
2023-02-06T14:28:11.212Z,98621.00
2023-02-06T14:30:50.558Z,98625.38
2023-02-06T14:33:48.465Z,98634.66
2023-02-06T14:36:48.976Z,98631.81
2023-02-06T14:39:47.278Z,98617.97
2023-02-06T14:42:23.993Z,98631.44
2023-02-06T14:44:58.605Z,98628.16
2023-02-06T14:47:40.039Z,98629.16
2023-02-06T14:50:17.058Z,98632.28
2023-02-06T14:52:57.110Z,98621.06
2023-02-06T14:55:36.203Z,98617.75
2023-02-06T14:58:18.471Z,98609.09
2023-02-06T15:00:47.004Z,98611.56
2023-02-06T15:03:18.995Z,98619.84
2023-02-06T15:05:48.040Z,98624.41
2023-02-06T15:08:21.544Z,98614.06
2023-02-06T15:11:00.241Z,98616.94
2023-02-06T15:13:35.859Z,98611.56
2023-02-06T15:16:07.564Z,98614.09
2023-02-06T15:18:37.238Z,98610.34
2023-02-06T15:21:09.193Z,98614.34
2023-02-06T15:23:56.159Z,98604.56
2023-02-06T15:26:35.599Z,98602.94
2023-02-06T15:29:15.572Z,98606.69
2023-02-06T15:31:49.342Z,98613.06
2023-02-06T15:34:20.741Z,98615.34
2023-02-06T15:36:49.119Z,98610.59
2023-02-06T15:39:19.560Z,98617.22
2023-02-06T15:41:51.490Z,98611.44
2023-02-06T15:44:28.766Z,98608.97
2023-02-06T15:46:59.203Z,98614.50
2023-02-06T15:49:37.736Z,98615.94
2023-02-06T15:52:07.242Z,98604.41
2023-02-06T15:54:36.944Z,98610.63
2023-02-06T15:57:18.982Z,98605.66
2023-02-06T15:59:49.129Z,98612.53
2023-02-06T16:02:24.711Z,98619.97
2023-02-06T16:04:55.364Z,98614.19
2023-02-06T16:07:27.637Z,98617.91
2023-02-06T16:10:04.016Z,98616.50
2023-02-06T16:12:36.617Z,98615.06
2023-02-06T16:15:30.117Z,98622.50
2023-02-06T16:18:00.732Z,98618.22
2023-02-06T16:20:37.268Z,98627.94
2023-02-06T16:23:27.013Z,98633.09
2023-02-06T16:26:07.448Z,98632.50
2023-02-06T16:28:46.700Z,98636.22
2023-02-06T16:31:17.024Z,98630.44
2023-02-06T16:33:48.386Z,98634.34
2023-02-06T16:36:19.661Z,98641.59
2023-02-06T16:39:02.810Z,98639.75
2023-02-06T16:41:35.169Z,98640.59
2023-02-06T16:44:06.307Z,98647.78
2023-02-06T16:46:36.063Z,98645.50
2023-02-06T16:49:11.787Z,98651.31
2023-02-06T16:51:43.551Z,98651.72
2023-02-06T16:54:20.386Z,98658.13
2023-02-06T16:56:49.702Z,98670.94
2023-02-06T16:59:18.021Z,98674.84
2023-02-06T17:01:48.242Z,98675.06
2023-02-06T17:04:16.683Z,98675.06
2023-02-06T17:06:45.029Z,98665.59
2023-02-06T17:09:18.443Z,98663.31
2023-02-06T17:11:46.783Z,98668.47
2023-02-06T17:14:15.150Z,98674.66
2023-02-06T17:16:43.505Z,98682.94
2023-02-06T17:19:15.531Z,98680.44
2023-02-06T17:21:43.845Z,98695.94
2023-02-06T17:24:12.275Z,98698.84
2023-02-06T17:26:40.860Z,98694.28
2023-02-06T17:29:09.520Z,98690.00
2023-02-06T17:31:38.330Z,98686.47
2023-02-06T17:34:06.734Z,98688.13
2023-02-06T17:36:39.646Z,98691.22
2023-02-06T17:39:08.399Z,98694.50
2023-02-06T17:41:36.741Z,98697.41
2023-02-06T17:44:05.843Z,98702.34
2023-02-06T17:46:34.628Z,98706.50
2023-02-06T17:49:02.952Z,98718.06
2023-02-06T17:51:31.408Z,98720.13
2023-02-06T17:54:01.177Z,98724.25
2023-02-06T17:56:29.870Z,98729.41
2023-02-06T17:58:58.343Z,98724.25
2023-02-06T18:01:27.523Z,98725.47
2023-02-06T18:03:56.153Z,98727.75
2023-02-06T18:06:24.896Z,98727.94
2023-02-06T18:08:53.337Z,98737.00
2023-02-06T18:11:23.761Z,98731.59
2023-02-06T18:13:52.455Z,98735.31
2023-02-06T18:16:23.570Z,98726.66
2023-02-06T18:18:52.278Z,98715.69
2023-02-06T18:21:25.965Z,98709.13
2023-02-06T18:23:54.932Z,98706.25
2023-02-06T18:26:24.729Z,98689.97
2023-02-06T18:28:53.092Z,98696.16
2023-02-06T18:31:26.677Z,98694.47
2023-02-06T18:33:56.304Z,98701.91
2023-02-06T18:36:25.523Z,98712.41
2023-02-06T18:38:54.617Z,98710.94
2023-02-06T18:41:41.971Z,98710.50
2023-02-06T18:44:12.259Z,98719.75
2023-02-06T18:46:41.308Z,98718.50
2023-02-06T18:49:09.933Z,98703.22
2023-02-06T18:51:38.309Z,98723.38
2023-02-06T18:54:07.784Z,98713.69
2023-02-06T18:56:37.937Z,98714.44
2023-02-06T18:59:07.582Z,98712.38
2023-02-06T19:01:36.596Z,98711.91
2023-02-06T19:04:06.318Z,98711.00
2023-02-06T19:06:36.624Z,98715.03
2023-02-06T19:09:07.912Z,98713.78
2023-02-06T19:11:37.993Z,98725.03
2023-02-06T19:14:08.437Z,98721.63
2023-02-06T19:16:38.539Z,98719.75
2023-02-06T19:19:08.692Z,98721.41
2023-02-06T19:21:39.419Z,98727.75
2023-02-06T19:24:08.552Z,98724.59
2023-02-06T19:26:38.352Z,98732.63
2023-02-06T19:29:06.901Z,98731.25
2023-02-06T19:31:40.589Z,98717.56
2023-02-06T19:34:09.081Z,98729.97
2023-02-06T19:36:37.472Z,98735.44
2023-02-06T19:39:09.375Z,98741.41
2023-02-06T19:41:39.378Z,98739.47
2023-02-06T19:44:18.003Z,98747.16
2023-02-06T19:46:46.378Z,98747.19
2023-02-06T19:49:14.761Z,98745.16
2023-02-06T19:51:44.816Z,98750.00
2023-02-06T19:54:14.248Z,98758.13
2023-02-06T19:56:46.955Z,98753.25
2023-02-06T19:59:19.117Z,98755.00
2023-02-06T20:01:50.489Z,98772.19
2023-02-06T20:04:20.402Z,98770.00
2023-02-06T20:06:51.030Z,98775.16
2023-02-06T20:09:22.222Z,98786.28
2023-02-06T20:11:53.156Z,98781.91
2023-02-06T20:14:22.032Z,98779.97
2023-02-06T20:16:51.156Z,98773.97
2023-02-06T20:19:24.325Z,98775.19
2023-02-06T20:21:56.225Z,98772.56
2023-02-06T20:24:27.690Z,98774.94
2023-02-06T20:27:00.418Z,98774.22
2023-02-06T20:29:32.120Z,98775.78
2023-02-06T20:32:01.778Z,98768.63
2023-02-06T20:34:31.126Z,98774.09
2023-02-06T20:36:59.616Z,98783.97
2023-02-06T20:39:28.981Z,98792.72
2023-02-06T20:41:58.893Z,98796.41
2023-02-06T20:44:28.611Z,98803.22
2023-02-06T20:46:57.261Z,98807.75
2023-02-06T20:49:31.140Z,98809.97
2023-02-06T20:51:59.977Z,98808.63
2023-02-06T20:54:28.661Z,98800.97
2023-02-06T20:57:00.355Z,98797.00
2023-02-06T20:59:29.339Z,98788.31
2023-02-06T21:01:57.815Z,98788.16
2023-02-06T21:04:26.774Z,98792.75
2023-02-06T21:06:56.379Z,98796.06
2023-02-06T21:09:25.580Z,98801.88
2023-02-06T21:11:54.348Z,98797.94
2023-02-06T21:14:25.355Z,98800.81
2023-02-06T21:16:54.062Z,98792.59
2023-02-06T21:19:26.688Z,98797.59
2023-02-06T21:21:55.655Z,98780.78
2023-02-06T21:24:24.411Z,98776.63
2023-02-06T21:26:52.768Z,98780.34
2023-02-06T21:29:22.927Z,98775.28
2023-02-06T21:32:07.154Z,98786.28
2023-02-06T21:34:41.246Z,98786.50
2023-02-06T21:37:10.026Z,98781.91
2023-02-06T21:39:40.541Z,98767.72
2023-02-06T21:42:09.555Z,98768.03
2023-02-06T21:44:38.410Z,98758.88
2023-02-06T21:47:12.041Z,98757.03
2023-02-06T21:49:40.670Z,98759.69
2023-02-06T21:52:09.366Z,98770.22
2023-02-06T21:54:37.693Z,98763.00
2023-02-06T21:57:06.017Z,98760.78
2023-02-06T21:59:36.572Z,98748.75
2023-02-06T22:02:05.780Z,98742.34
2023-02-06T22:04:35.736Z,98740.16
2023-02-06T22:07:04.124Z,98749.81
2023-02-06T22:09:32.521Z,98752.41
2023-02-06T22:12:01.650Z,98758.47
2023-02-06T22:14:30.165Z,98769.34
2023-02-06T22:16:58.878Z,98777.16
2023-02-06T22:19:27.311Z,98789.34
2023-02-06T22:21:57.004Z,98792.53
2023-02-06T22:24:25.716Z,98790.38
2023-02-06T22:26:54.121Z,98794.16
2023-02-06T22:29:22.812Z,98790.16
2023-02-06T22:31:51.227Z,98807.13
2023-02-06T22:34:22.387Z,98810.25
2023-02-06T22:36:52.296Z,98812.28
2023-02-06T22:39:22.305Z,98825.84
2023-02-06T22:41:51.696Z,98838.13
2023-02-06T22:44:21.861Z,98835.25
2023-02-06T22:46:53.601Z,98838.22
2023-02-06T22:49:26.517Z,98834.34
2023-02-06T22:51:57.847Z,98838.38
2023-02-06T22:54:27.652Z,98848.22
2023-02-06T22:56:55.996Z,98854.03
2023-02-06T22:59:26.845Z,98846.56
2023-02-06T23:01:58.407Z,98842.78
2023-02-06T23:04:30.501Z,98849.47
2023-02-06T23:06:58.854Z,98853.97
2023-02-06T23:09:32.032Z,98863.59
2023-02-06T23:12:02.086Z,98861.75
2023-02-06T23:14:33.501Z,98865.63
2023-02-06T23:17:03.631Z,98867.50
2023-02-06T23:19:32.578Z,98868.13
2023-02-06T23:22:00.936Z,98860.44
2023-02-06T23:24:33.961Z,98873.75
2023-02-06T23:27:02.566Z,98870.88
2023-02-06T23:29:31.020Z,98873.56
2023-02-06T23:31:59.664Z,98873.56
2023-02-06T23:34:28.031Z,98872.91
2023-02-06T23:36:56.415Z,98873.97
2023-02-06T23:39:24.846Z,98867.78
2023-02-06T23:41:54.680Z,98865.66
2023-02-06T23:44:23.281Z,98859.84
2023-02-06T23:46:51.517Z,98867.38
2023-02-06T23:49:19.867Z,98866.84
2023-02-06T23:51:48.575Z,98869.41
2023-02-06T23:54:17.214Z,98863.41
2023-02-06T23:56:45.564Z,98856.75
2023-02-06T23:59:15.904Z,98855.59
